createdAt,value
2018-06-25T00:00:16.752Z,14.26
2018-06-25T00:01:17.092Z,14.23
2018-06-25T00:02:16.351Z,14.23
2018-06-25T00:03:16.605Z,14.15
2018-06-25T00:04:16.876Z,14.13
2018-06-25T00:05:17.129Z,14.12
2018-06-25T00:06:16.398Z,14.09
2018-06-25T00:07:16.666Z,14.09
2018-06-25T00:08:16.926Z,14.08
2018-06-25T00:09:17.197Z,14.05
2018-06-25T00:10:16.463Z,14.02
2018-06-25T00:11:16.508Z,14.01
2018-06-25T00:12:16.777Z,14.00
2018-06-25T00:13:17.042Z,14.00
2018-06-25T00:14:16.301Z,13.98
2018-06-25T00:15:16.564Z,13.97
2018-06-25T00:16:16.818Z,13.97
2018-06-25T00:17:17.078Z,13.95
2018-06-25T00:18:16.339Z,13.97
2018-06-25T00:19:16.595Z,13.94
2018-06-25T00:20:16.860Z,13.95
2018-06-25T00:21:16.898Z,13.92
2018-06-25T00:22:17.150Z,13.92
2018-06-25T00:23:16.414Z,13.91
2018-06-25T00:24:16.674Z,13.91
2018-06-25T00:25:16.936Z,13.91
2018-06-25T00:26:17.190Z,13.88
2018-06-25T00:27:16.442Z,13.85
2018-06-25T00:28:16.691Z,13.87
2018-06-25T00:29:16.949Z,13.87
2018-06-25T00:30:16.222Z,13.82
2018-06-25T00:31:16.269Z,13.84
2018-06-25T00:32:16.524Z,13.82
2018-06-25T00:33:16.790Z,13.80
2018-06-25T00:34:17.047Z,13.81
2018-06-25T00:35:16.339Z,13.78
2018-06-25T00:36:16.593Z,13.78
2018-06-25T00:37:16.852Z,13.78
2018-06-25T00:38:17.110Z,13.78
2018-06-25T00:39:16.364Z,13.77
2018-06-25T00:40:16.626Z,13.74
2018-06-25T00:41:16.663Z,13.73
2018-06-25T00:42:16.923Z,13.73
2018-06-25T00:43:16.392Z,13.74
2018-06-25T00:44:16.650Z,13.73
2018-06-25T00:45:16.914Z,13.74
2018-06-25T00:46:17.172Z,13.74
2018-06-25T00:47:16.429Z,13.73
2018-06-25T00:48:16.691Z,13.74
2018-06-25T00:49:16.954Z,13.71
2018-06-25T00:50:16.233Z,13.71
2018-06-25T00:51:16.257Z,13.71
2018-06-25T00:52:16.512Z,13.73
2018-06-25T00:53:16.773Z,13.70
2018-06-25T00:54:17.038Z,13.71
2018-06-25T00:55:16.492Z,13.67
2018-06-25T00:56:16.745Z,13.64
2018-06-25T00:57:17.007Z,13.67
2018-06-25T00:58:16.269Z,13.64
2018-06-25T00:59:16.534Z,13.65
2018-06-25T01:00:16.809Z,13.67
2018-06-25T01:01:16.855Z,13.63
2018-06-25T01:02:17.111Z,13.63
2018-06-25T01:03:16.376Z,13.63
2018-06-25T01:04:16.638Z,13.63
2018-06-25T01:05:17.173Z,13.63
2018-06-25T01:06:16.440Z,13.63
2018-06-25T01:07:16.698Z,13.63
2018-06-25T01:08:16.949Z,13.61
2018-06-25T01:09:16.210Z,13.60
2018-06-25T01:10:16.491Z,13.61
2018-06-25T01:11:16.531Z,13.60
2018-06-25T01:12:16.795Z,13.58
2018-06-25T01:13:17.057Z,13.58
2018-06-25T01:14:16.311Z,13.60
2018-06-25T01:15:16.582Z,13.55
2018-06-25T01:16:16.849Z,13.57
2018-06-25T01:17:17.125Z,13.58
2018-06-25T01:18:16.392Z,13.55
2018-06-25T01:19:16.658Z,13.57
2018-06-25T01:20:16.916Z,13.55
2018-06-25T01:21:16.971Z,13.54
2018-06-25T01:22:16.232Z,13.54
2018-06-25T01:23:16.499Z,13.53
2018-06-25T01:24:16.755Z,13.53
2018-06-25T01:25:17.024Z,13.53
2018-06-25T01:26:16.278Z,13.53
2018-06-25T01:27:16.542Z,13.53
2018-06-25T01:28:16.800Z,13.54
2018-06-25T01:29:17.060Z,13.53
2018-06-25T01:30:16.329Z,13.50
2018-06-25T01:31:16.364Z,13.51
2018-06-25T01:32:16.629Z,13.54
2018-06-25T01:33:16.885Z,13.54
2018-06-25T01:34:17.149Z,13.51
2018-06-25T01:35:16.409Z,13.53
2018-06-25T01:36:16.706Z,13.53
2018-06-25T01:37:16.984Z,13.53
2018-06-25T01:38:16.244Z,13.53
2018-06-25T01:39:16.499Z,13.51
2018-06-25T01:40:16.767Z,13.51
2018-06-25T01:41:16.801Z,13.53
2018-06-25T01:42:17.063Z,13.51
2018-06-25T01:43:16.319Z,13.51
2018-06-25T01:44:16.577Z,13.49
2018-06-25T01:45:16.837Z,13.51
2018-06-25T01:46:17.096Z,13.51
2018-06-25T01:47:16.363Z,13.53
2018-06-25T01:48:16.625Z,13.54
2018-06-25T01:49:16.890Z,13.53
2018-06-25T01:50:17.162Z,13.53
2018-06-25T01:51:17.190Z,13.54
2018-06-25T01:52:16.445Z,13.53
2018-06-25T01:53:16.707Z,13.51
2018-06-25T01:54:16.964Z,13.50
2018-06-25T01:55:16.223Z,13.51
2018-06-25T01:56:16.490Z,13.51
2018-06-25T01:57:16.745Z,13.51
2018-06-25T01:58:17.014Z,13.51
2018-06-25T01:59:16.281Z,13.47
2018-06-25T02:00:16.548Z,13.49
2018-06-25T02:01:16.595Z,13.47
2018-06-25T02:02:16.865Z,13.46
2018-06-25T02:03:17.129Z,13.44
2018-06-25T02:04:16.396Z,13.44
2018-06-25T02:05:16.657Z,13.43
2018-06-25T02:06:16.910Z,13.42
2018-06-25T02:07:17.171Z,13.40
2018-06-25T02:08:16.424Z,13.40
2018-06-25T02:09:16.678Z,13.40
2018-06-25T02:10:16.949Z,13.40
2018-06-25T02:11:16.983Z,13.39
2018-06-25T02:12:16.247Z,13.39
2018-06-25T02:13:16.513Z,13.39
2018-06-25T02:14:16.770Z,13.42
2018-06-25T02:15:17.035Z,13.40
2018-06-25T02:16:16.300Z,13.39
2018-06-25T02:17:16.562Z,13.39
2018-06-25T02:18:16.820Z,13.36
2018-06-25T02:19:17.076Z,13.39
2018-06-25T02:20:16.334Z,13.37
2018-06-25T02:21:16.386Z,13.34
2018-06-25T02:22:16.657Z,13.40
2018-06-25T02:23:16.920Z,13.37
2018-06-25T02:24:17.179Z,13.34
2018-06-25T02:25:16.441Z,13.34
2018-06-25T02:26:16.696Z,13.34
2018-06-25T02:27:16.961Z,13.34
2018-06-25T02:28:16.225Z,13.29
2018-06-25T02:29:16.488Z,13.33
2018-06-25T02:30:16.751Z,13.34
2018-06-25T02:31:16.818Z,13.36
2018-06-25T02:32:17.081Z,13.33
2018-06-25T02:33:16.342Z,13.34
2018-06-25T02:34:16.607Z,13.34
2018-06-25T02:35:16.869Z,13.36
2018-06-25T02:36:17.261Z,13.34
2018-06-25T02:37:16.514Z,13.34
2018-06-25T02:38:16.771Z,13.39
2018-06-25T02:39:17.034Z,13.34
2018-06-25T02:40:16.314Z,13.40
2018-06-25T02:41:16.341Z,13.40
2018-06-25T02:42:16.602Z,13.39
2018-06-25T02:43:16.866Z,13.34
2018-06-25T02:44:17.137Z,13.34
2018-06-25T02:45:16.401Z,13.36
2018-06-25T02:46:16.658Z,13.34
2018-06-25T02:47:16.937Z,13.33
2018-06-25T02:48:16.204Z,13.36
2018-06-25T02:49:16.474Z,13.34
2018-06-25T02:50:16.751Z,13.32
2018-06-25T02:51:16.783Z,13.33
2018-06-25T02:52:17.037Z,13.33
2018-06-25T02:53:16.298Z,13.32
2018-06-25T02:54:16.556Z,13.36
2018-06-25T02:55:16.828Z,13.36
2018-06-25T02:56:17.090Z,13.34
2018-06-25T02:57:16.350Z,13.36
2018-06-25T02:58:16.609Z,13.32
2018-06-25T02:59:17.007Z,13.32
2018-06-25T03:00:16.430Z,13.34
2018-06-25T03:01:16.473Z,13.27
2018-06-25T03:02:16.749Z,13.30
2018-06-25T03:03:17.014Z,13.32
2018-06-25T03:04:16.278Z,13.32
2018-06-25T03:05:16.544Z,13.30
2018-06-25T03:06:16.825Z,13.30
2018-06-25T03:07:17.082Z,13.30
2018-06-25T03:08:16.350Z,13.32
2018-06-25T03:09:16.612Z,13.34
2018-06-25T03:10:16.877Z,13.33
2018-06-25T03:11:16.916Z,13.34
2018-06-25T03:12:17.177Z,13.34
2018-06-25T03:13:16.440Z,13.36
2018-06-25T03:14:16.693Z,13.39
2018-06-25T03:15:16.962Z,13.40
2018-06-25T03:16:16.221Z,13.36
2018-06-25T03:17:16.485Z,13.37
2018-06-25T03:18:16.768Z,13.36
2018-06-25T03:19:17.032Z,13.36
2018-06-25T03:20:16.302Z,13.37
2018-06-25T03:21:16.328Z,13.36
2018-06-25T03:22:16.593Z,13.36
2018-06-25T03:23:16.860Z,13.37
2018-06-25T03:24:17.122Z,13.40
2018-06-25T03:25:16.385Z,13.34
2018-06-25T03:26:16.648Z,13.39
2018-06-25T03:27:16.914Z,13.37
2018-06-25T03:28:17.190Z,13.34
2018-06-25T03:29:16.451Z,13.33
2018-06-25T03:30:16.721Z,13.25
2018-06-25T03:31:16.780Z,13.22
2018-06-25T03:32:17.041Z,13.21
2018-06-25T03:33:16.296Z,13.23
2018-06-25T03:34:16.555Z,13.15
2018-06-25T03:35:16.822Z,13.16
2018-06-25T03:36:17.082Z,13.19
2018-06-25T03:37:16.338Z,13.23
2018-06-25T03:38:16.591Z,13.25
2018-06-25T03:39:16.857Z,13.25
2018-06-25T03:40:17.135Z,13.25
2018-06-25T03:41:17.164Z,13.29
2018-06-25T03:42:16.427Z,13.29
2018-06-25T03:43:16.729Z,13.23
2018-06-25T03:44:17.043Z,13.26
2018-06-25T03:45:16.303Z,13.29
2018-06-25T03:46:16.566Z,13.26
2018-06-25T03:47:16.834Z,13.27
2018-06-25T03:48:17.102Z,13.27
2018-06-25T03:49:16.373Z,13.30
2018-06-25T03:50:16.649Z,13.27
2018-06-25T03:51:16.687Z,13.32
2018-06-25T03:52:16.951Z,13.33
2018-06-25T03:53:16.220Z,13.37
2018-06-25T03:54:16.495Z,13.39
2018-06-25T03:55:16.762Z,13.33
2018-06-25T03:56:17.028Z,13.32
2018-06-25T03:57:16.285Z,13.36
2018-06-25T03:58:16.544Z,13.39
2018-06-25T03:59:16.833Z,13.34
2018-06-25T04:00:17.130Z,13.34
2018-06-25T04:01:16.209Z,13.34
2018-06-25T04:02:16.480Z,13.36
2018-06-25T04:03:16.735Z,13.42
2018-06-25T04:04:16.996Z,13.37
2018-06-25T04:05:16.253Z,13.36
2018-06-25T04:06:16.645Z,13.30
2018-06-25T04:07:16.903Z,13.30
2018-06-25T04:08:17.163Z,13.27
2018-06-25T04:09:16.423Z,13.32
2018-06-25T04:10:16.687Z,13.33
2018-06-25T04:11:16.736Z,13.34
2018-06-25T04:12:17.004Z,13.37
2018-06-25T04:13:16.268Z,13.36
2018-06-25T04:14:16.523Z,13.34
2018-06-25T04:15:16.799Z,13.39
2018-06-25T04:16:17.075Z,13.39
2018-06-25T04:17:16.334Z,13.42
2018-06-25T04:18:16.603Z,13.37
2018-06-25T04:19:16.865Z,13.42
2018-06-25T04:20:17.137Z,13.36
2018-06-25T04:21:17.178Z,13.47
2018-06-25T04:22:16.439Z,13.46
2018-06-25T04:23:16.694Z,13.43
2018-06-25T04:24:16.972Z,13.46
2018-06-25T04:25:16.248Z,13.46
2018-06-25T04:26:16.537Z,13.50
2018-06-25T04:27:16.796Z,13.50
2018-06-25T04:28:17.058Z,13.58
2018-06-25T04:29:16.317Z,13.61
2018-06-25T04:30:16.581Z,13.58
2018-06-25T04:31:16.626Z,13.64
2018-06-25T04:32:16.890Z,13.68
2018-06-25T04:33:17.139Z,13.67
2018-06-25T04:34:16.397Z,13.61
2018-06-25T04:35:16.662Z,13.61
2018-06-25T04:36:16.926Z,13.55
2018-06-25T04:37:17.184Z,13.54
2018-06-25T04:38:16.454Z,13.57
2018-06-25T04:39:16.717Z,13.51
2018-06-25T04:40:17.045Z,13.51
2018-06-25T04:41:17.007Z,13.51
2018-06-25T04:42:16.270Z,13.47
2018-06-25T04:43:16.527Z,13.50
2018-06-25T04:44:16.785Z,13.53
2018-06-25T04:45:17.049Z,13.57
2018-06-25T04:46:16.305Z,13.55
2018-06-25T04:47:16.569Z,13.61
2018-06-25T04:48:16.829Z,13.67
2018-06-25T04:49:17.092Z,13.71
2018-06-25T04:50:16.368Z,13.74
2018-06-25T04:51:16.409Z,13.78
2018-06-25T04:52:16.736Z,13.78
2018-06-25T04:53:16.994Z,13.80
2018-06-25T04:54:16.252Z,13.78
2018-06-25T04:55:16.514Z,13.82
2018-06-25T04:56:16.778Z,13.81
2018-06-25T04:57:17.037Z,13.68
2018-06-25T04:58:16.294Z,13.68
2018-06-25T04:59:16.555Z,13.78
2018-06-25T05:00:16.834Z,13.77
2018-06-25T05:01:16.981Z,13.85
2018-06-25T05:02:16.310Z,13.95
2018-06-25T05:03:16.563Z,14.08
2018-06-25T05:04:16.835Z,14.04
2018-06-25T05:05:17.106Z,14.05
2018-06-25T05:06:16.369Z,14.09
2018-06-25T05:07:16.633Z,14.08
2018-06-25T05:08:16.894Z,14.08
2018-06-25T05:09:17.161Z,14.08
2018-06-25T05:10:16.430Z,14.12
2018-06-25T05:11:16.464Z,14.22
2018-06-25T05:12:16.720Z,14.23
2018-06-25T05:13:16.975Z,14.18
2018-06-25T05:14:16.240Z,14.22
2018-06-25T05:15:16.510Z,14.30
2018-06-25T05:16:16.770Z,14.33
2018-06-25T05:17:17.023Z,14.30
2018-06-25T05:18:16.282Z,14.35
2018-06-25T05:19:16.547Z,14.30
2018-06-25T05:20:16.822Z,14.30
2018-06-25T05:21:16.855Z,14.32
2018-06-25T05:22:17.123Z,14.47
2018-06-25T05:23:16.381Z,14.52
2018-06-25T05:24:16.649Z,14.47
2018-06-25T05:25:16.906Z,14.36
2018-06-25T05:26:17.175Z,14.33
2018-06-25T05:27:16.625Z,14.46
2018-06-25T05:28:16.891Z,14.47
2018-06-25T05:29:17.273Z,14.47
2018-06-25T05:30:16.790Z,14.56
2018-06-25T05:31:16.837Z,14.56
2018-06-25T05:32:17.098Z,14.62
2018-06-25T05:33:16.361Z,14.68
2018-06-25T05:34:16.631Z,14.78
2018-06-25T05:35:16.914Z,14.83
2018-06-25T05:36:17.207Z,14.85
2018-06-25T05:37:16.486Z,14.90
2018-06-25T05:38:16.750Z,14.80
2018-06-25T05:39:17.011Z,14.87
2018-06-25T05:40:16.277Z,14.95
2018-06-25T05:41:16.325Z,14.98
2018-06-25T05:42:16.580Z,15.08
2018-06-25T05:43:16.846Z,14.94
2018-06-25T05:44:17.115Z,14.92
2018-06-25T05:45:16.380Z,14.81
2018-06-25T05:46:16.650Z,14.78
2018-06-25T05:47:16.919Z,14.73
2018-06-25T05:48:17.176Z,14.73
2018-06-25T05:49:16.434Z,14.56
2018-06-25T05:50:16.700Z,14.62
2018-06-25T05:51:16.731Z,14.63
2018-06-25T05:52:16.988Z,14.46
2018-06-25T05:53:16.245Z,14.43
2018-06-25T05:54:16.507Z,14.53
2018-06-25T05:55:16.762Z,14.60
2018-06-25T05:56:17.036Z,14.52
2018-06-25T05:57:16.299Z,14.56
2018-06-25T05:58:16.558Z,14.47
2018-06-25T05:59:16.816Z,14.41
2018-06-25T06:00:17.104Z,14.36
2018-06-25T06:01:17.146Z,14.46
2018-06-25T06:02:16.417Z,14.66
2018-06-25T06:03:16.673Z,14.80
2018-06-25T06:04:16.937Z,14.83
2018-06-25T06:05:17.201Z,14.64
2018-06-25T06:06:16.461Z,14.63
2018-06-25T06:07:16.718Z,14.67
2018-06-25T06:08:16.977Z,14.76
2018-06-25T06:09:16.242Z,14.76
2018-06-25T06:10:16.522Z,14.68
2018-06-25T06:11:16.558Z,14.78
2018-06-25T06:12:16.821Z,14.97
2018-06-25T06:13:17.084Z,14.98
2018-06-25T06:14:16.351Z,15.12
2018-06-25T06:15:16.626Z,14.90
2018-06-25T06:16:16.892Z,14.94
2018-06-25T06:17:17.198Z,14.63
2018-06-25T06:18:16.518Z,14.63
2018-06-25T06:19:16.780Z,14.74
2018-06-25T06:20:17.043Z,14.68
2018-06-25T06:21:17.102Z,14.68
2018-06-25T06:22:16.373Z,14.76
2018-06-25T06:23:16.636Z,14.98
2018-06-25T06:24:16.898Z,15.04
2018-06-25T06:25:17.156Z,14.97
2018-06-25T06:26:16.416Z,14.97
2018-06-25T06:27:16.713Z,14.85
2018-06-25T06:28:16.976Z,14.78
2018-06-25T06:29:16.242Z,14.68
2018-06-25T06:30:16.507Z,14.70
2018-06-25T06:31:16.553Z,14.60
2018-06-25T06:32:16.809Z,14.68
2018-06-25T06:33:17.073Z,14.63
2018-06-25T06:34:16.345Z,14.62
2018-06-25T06:35:16.616Z,14.50
2018-06-25T06:36:16.872Z,14.56
2018-06-25T06:37:17.141Z,14.64
2018-06-25T06:38:16.405Z,14.62
2018-06-25T06:39:16.669Z,14.71
2018-06-25T06:40:16.936Z,14.78
2018-06-25T06:41:16.970Z,14.74
2018-06-25T06:42:16.228Z,14.67
2018-06-25T06:43:16.481Z,14.41
2018-06-25T06:44:16.734Z,14.37
2018-06-25T06:45:17.007Z,14.30
2018-06-25T06:46:16.265Z,14.37
2018-06-25T06:47:16.525Z,14.44
2018-06-25T06:48:16.788Z,14.49
2018-06-25T06:49:17.048Z,14.49
2018-06-25T06:50:16.311Z,14.47
2018-06-25T06:51:16.370Z,14.46
2018-06-25T06:52:16.630Z,14.46
2018-06-25T06:53:16.903Z,14.43
2018-06-25T06:54:17.166Z,14.43
2018-06-25T06:55:16.438Z,14.46
2018-06-25T06:56:16.689Z,14.47
2018-06-25T06:57:16.945Z,14.47
2018-06-25T06:58:16.209Z,14.41
2018-06-25T06:59:16.475Z,14.47
2018-06-25T07:00:16.750Z,14.55
2018-06-25T07:01:16.786Z,14.52
2018-06-25T07:02:17.046Z,14.47
2018-06-25T07:03:16.305Z,14.49
2018-06-25T07:04:16.564Z,14.52
2018-06-25T07:05:16.822Z,14.50
2018-06-25T07:06:17.100Z,14.52
2018-06-25T07:07:16.362Z,14.57
2018-06-25T07:08:16.631Z,14.56
2018-06-25T07:09:16.898Z,14.57
2018-06-25T07:10:17.184Z,14.57
2018-06-25T07:11:16.211Z,14.57
2018-06-25T07:12:16.477Z,14.63
2018-06-25T07:13:16.740Z,14.70
2018-06-25T07:14:17.029Z,14.78
2018-06-25T07:15:16.300Z,14.80
2018-06-25T07:16:16.575Z,15.06
2018-06-25T07:17:16.837Z,15.29
2018-06-25T07:18:17.099Z,15.22
2018-06-25T07:19:16.362Z,15.38
2018-06-25T07:20:16.629Z,15.69
2018-06-25T07:21:16.694Z,15.78
2018-06-25T07:22:16.966Z,15.77
2018-06-25T07:23:16.219Z,15.82
2018-06-25T07:24:16.489Z,15.95
2018-06-25T07:25:16.754Z,16.12
2018-06-25T07:26:17.016Z,16.07
2018-06-25T07:27:16.283Z,16.32
2018-06-25T07:28:16.543Z,16.55
2018-06-25T07:29:16.878Z,16.47
2018-06-25T07:30:16.353Z,16.47
2018-06-25T07:31:16.404Z,16.21
2018-06-25T07:32:16.664Z,16.11
2018-06-25T07:33:16.930Z,16.28
2018-06-25T07:34:17.195Z,16.02
2018-06-25T07:35:16.461Z,16.27
2018-06-25T07:36:16.724Z,16.49
2018-06-25T07:37:16.989Z,16.74
2018-06-25T07:38:16.249Z,16.42
2018-06-25T07:39:16.520Z,16.53
2018-06-25T07:40:16.797Z,16.62
2018-06-25T07:41:16.833Z,16.77
2018-06-25T07:42:17.111Z,17.00
2018-06-25T07:43:16.372Z,17.24
2018-06-25T07:44:16.630Z,17.29
2018-06-25T07:45:16.894Z,17.59
2018-06-25T07:46:17.157Z,17.62
2018-06-25T07:47:16.500Z,17.87
2018-06-25T07:48:16.984Z,17.68
2018-06-25T07:49:16.302Z,17.68
2018-06-25T07:50:16.583Z,17.84
2018-06-25T07:51:16.620Z,17.76
2018-06-25T07:52:16.887Z,17.49
2018-06-25T07:53:17.246Z,16.81
2018-06-25T07:54:16.702Z,16.38
2018-06-25T07:55:16.983Z,16.39
2018-06-25T07:56:16.242Z,16.35
2018-06-25T07:57:16.500Z,16.29
2018-06-25T07:58:16.759Z,16.29
2018-06-25T07:59:17.022Z,16.27
2018-06-25T08:00:16.301Z,16.27
2018-06-25T08:01:16.335Z,16.12
2018-06-25T08:02:16.594Z,15.91
2018-06-25T08:03:16.853Z,15.87
2018-06-25T08:04:17.110Z,15.95
2018-06-25T08:05:16.378Z,15.91
2018-06-25T08:06:16.646Z,16.07
2018-06-25T08:07:16.913Z,15.90
2018-06-25T08:08:17.175Z,15.71
2018-06-25T08:09:16.443Z,15.77
2018-06-25T08:10:16.742Z,15.91
2018-06-25T08:11:16.762Z,16.11
2018-06-25T08:12:17.033Z,16.05
2018-06-25T08:13:16.288Z,16.18
2018-06-25T08:14:16.549Z,16.22
2018-06-25T08:15:16.810Z,16.33
2018-06-25T08:16:17.099Z,16.66
2018-06-25T08:17:16.407Z,16.98
2018-06-25T08:18:16.661Z,17.29
2018-06-25T08:19:16.919Z,17.03
2018-06-25T08:20:17.223Z,16.70
2018-06-25T08:21:16.228Z,17.18
2018-06-25T08:22:16.493Z,16.88
2018-06-25T08:23:16.757Z,17.24
2018-06-25T08:24:17.018Z,17.59
2018-06-25T08:25:16.277Z,17.43
2018-06-25T08:26:16.552Z,17.36
2018-06-25T08:27:16.817Z,17.77
2018-06-25T08:28:17.076Z,17.79
2018-06-25T08:29:16.338Z,17.96
2018-06-25T08:30:16.601Z,18.19
2018-06-25T08:31:16.643Z,18.48
2018-06-25T08:32:16.906Z,18.46
2018-06-25T08:33:17.170Z,18.41
2018-06-25T08:34:16.489Z,18.21
2018-06-25T08:35:17.038Z,18.27
2018-06-25T08:36:16.306Z,18.31
2018-06-25T08:37:16.560Z,18.29
2018-06-25T08:38:16.825Z,18.49
2018-06-25T08:39:17.087Z,18.38
2018-06-25T08:40:16.434Z,18.22
2018-06-25T08:41:16.395Z,18.49
2018-06-25T08:42:16.650Z,18.58
2018-06-25T08:43:16.937Z,18.46
2018-06-25T08:44:16.253Z,18.44
2018-06-25T08:45:16.514Z,18.42
2018-06-25T08:46:16.776Z,17.60
2018-06-25T08:47:17.046Z,17.77
2018-06-25T08:48:16.302Z,17.98
2018-06-25T08:49:16.554Z,17.76
2018-06-25T08:50:16.825Z,17.59
2018-06-25T08:51:16.858Z,17.50
2018-06-25T08:52:17.122Z,17.19
2018-06-25T08:53:16.380Z,17.39
2018-06-25T08:54:16.648Z,17.42
2018-06-25T08:55:16.924Z,17.29
2018-06-25T08:56:17.191Z,17.18
2018-06-25T08:57:16.448Z,17.31
2018-06-25T08:58:16.712Z,17.29
2018-06-25T08:59:16.977Z,17.14
2018-06-25T09:00:16.245Z,17.29
2018-06-25T09:01:16.319Z,17.46
2018-06-25T09:02:16.591Z,17.43
2018-06-25T09:03:17.000Z,16.94
2018-06-25T09:04:16.549Z,16.78
2018-06-25T09:05:16.926Z,16.87
2018-06-25T09:06:16.391Z,16.83
2018-06-25T09:07:16.656Z,16.64
2018-06-25T09:08:16.924Z,16.77
2018-06-25T09:09:17.191Z,17.24
2018-06-25T09:10:16.476Z,17.04
2018-06-25T09:11:16.516Z,17.07
2018-06-25T09:12:16.771Z,17.29
2018-06-25T09:13:17.032Z,17.38
2018-06-25T09:14:16.295Z,17.28
2018-06-25T09:15:16.617Z,17.07
2018-06-25T09:16:17.091Z,17.48
2018-06-25T09:17:16.354Z,17.60
2018-06-25T09:18:16.616Z,17.77
2018-06-25T09:19:16.880Z,17.83
2018-06-25T09:20:17.146Z,17.52
2018-06-25T09:21:17.187Z,17.41
2018-06-25T09:22:16.455Z,17.49
2018-06-25T09:23:16.713Z,17.83
2018-06-25T09:24:16.974Z,18.52
2018-06-25T09:25:16.377Z,19.04
2018-06-25T09:26:16.641Z,19.51
2018-06-25T09:27:16.900Z,20.46
2018-06-25T09:28:17.160Z,20.20
2018-06-25T09:29:16.416Z,19.49
2018-06-25T09:30:16.691Z,17.76
2018-06-25T09:31:16.731Z,18.24
2018-06-25T09:32:16.989Z,18.79
2018-06-25T09:33:16.262Z,18.28
2018-06-25T09:34:16.522Z,18.05
2018-06-25T09:35:16.872Z,18.08
2018-06-25T09:36:16.203Z,17.52
2018-06-25T09:37:16.466Z,17.25
2018-06-25T09:38:16.724Z,17.35
2018-06-25T09:39:16.992Z,17.38
2018-06-25T09:40:16.257Z,17.36
2018-06-25T09:41:16.458Z,17.33
2018-06-25T09:42:16.956Z,17.17
2018-06-25T09:43:16.219Z,16.97
2018-06-25T09:44:16.484Z,17.01
2018-06-25T09:45:16.747Z,17.10
2018-06-25T09:46:17.010Z,17.04
2018-06-25T09:47:16.287Z,17.00
2018-06-25T09:48:16.545Z,17.07
2018-06-25T09:49:16.800Z,16.98
2018-06-25T09:50:17.063Z,17.01
2018-06-25T09:51:17.097Z,17.25
2018-06-25T09:52:16.353Z,17.41
2018-06-25T09:53:16.610Z,17.45
2018-06-25T09:54:16.875Z,17.42
2018-06-25T09:55:17.132Z,17.63
2018-06-25T09:56:16.393Z,17.73
2018-06-25T09:57:16.656Z,17.80
2018-06-25T09:58:16.925Z,17.72
2018-06-25T09:59:17.190Z,17.77
2018-06-25T10:00:16.474Z,17.84
2018-06-25T10:01:16.512Z,17.72
2018-06-25T10:02:16.771Z,17.63
2018-06-25T10:03:17.031Z,17.35
2018-06-25T10:04:16.294Z,17.42
2018-06-25T10:05:16.549Z,17.70
2018-06-25T10:06:16.821Z,17.81
2018-06-25T10:07:17.086Z,17.91
2018-06-25T10:08:16.341Z,17.94
2018-06-25T10:09:16.599Z,18.01
2018-06-25T10:10:16.871Z,18.45
2018-06-25T10:11:16.936Z,18.12
2018-06-25T10:12:17.195Z,18.60
2018-06-25T10:13:16.459Z,19.48
2018-06-25T10:14:16.723Z,20.08
2018-06-25T10:15:16.982Z,19.93
2018-06-25T10:16:16.245Z,19.84
2018-06-25T10:17:16.510Z,20.11
2018-06-25T10:18:16.773Z,20.06
2018-06-25T10:19:17.033Z,20.10
2018-06-25T10:20:16.305Z,20.14
2018-06-25T10:21:16.373Z,20.27
2018-06-25T10:22:16.749Z,20.06
2018-06-25T10:23:17.009Z,19.83
2018-06-25T10:24:16.278Z,19.81
2018-06-25T10:25:16.542Z,19.76
2018-06-25T10:26:16.806Z,19.25
2018-06-25T10:27:17.062Z,19.21
2018-06-25T10:28:16.324Z,18.67
2018-06-25T10:29:16.585Z,18.91
2018-06-25T10:30:16.848Z,18.94
2018-06-25T10:31:16.879Z,18.83
2018-06-25T10:32:17.151Z,18.76
2018-06-25T10:33:16.421Z,19.27
2018-06-25T10:34:16.678Z,19.86
2018-06-25T10:35:16.944Z,20.21
2018-06-25T10:36:16.203Z,20.23
2018-06-25T10:37:16.463Z,20.80
2018-06-25T10:38:16.726Z,20.51
2018-06-25T10:39:16.986Z,20.54
2018-06-25T10:40:16.260Z,20.20
2018-06-25T10:41:16.303Z,19.77
2018-06-25T10:42:16.593Z,19.31
2018-06-25T10:43:16.938Z,19.48
2018-06-25T10:44:17.202Z,19.35
2018-06-25T10:45:16.473Z,19.58
2018-06-25T10:46:16.731Z,19.72
2018-06-25T10:47:16.990Z,19.73
2018-06-25T10:48:16.256Z,19.77
2018-06-25T10:49:16.515Z,20.01
2018-06-25T10:50:16.787Z,20.01
2018-06-25T10:51:16.826Z,20.35
2018-06-25T10:52:17.079Z,20.18
2018-06-25T10:53:16.337Z,20.35
2018-06-25T10:54:16.603Z,20.28
2018-06-25T10:55:16.880Z,20.44
2018-06-25T10:56:17.147Z,20.49
2018-06-25T10:57:16.412Z,20.31
2018-06-25T10:58:16.677Z,20.24
2018-06-25T10:59:16.936Z,19.94
2018-06-25T11:00:16.457Z,19.52
2018-06-25T11:01:16.252Z,19.62
2018-06-25T11:02:16.563Z,19.55
2018-06-25T11:03:16.829Z,19.76
2018-06-25T11:04:17.086Z,19.83
2018-06-25T11:05:16.350Z,19.74
2018-06-25T11:06:16.618Z,19.69
2018-06-25T11:07:17.043Z,19.55
2018-06-25T11:08:16.687Z,19.69
2018-06-25T11:09:16.963Z,19.79
2018-06-25T11:10:16.246Z,19.53
2018-06-25T11:11:16.307Z,19.77
2018-06-25T11:12:16.568Z,20.17
2018-06-25T11:13:16.833Z,19.48
2018-06-25T11:14:17.112Z,19.39
2018-06-25T11:15:16.374Z,19.86
2018-06-25T11:16:16.635Z,20.04
2018-06-25T11:17:16.898Z,20.06
2018-06-25T11:18:17.167Z,20.06
2018-06-25T11:19:16.432Z,20.17
2018-06-25T11:20:16.703Z,20.25
2018-06-25T11:21:16.751Z,20.25
2018-06-25T11:22:17.014Z,19.97
2018-06-25T11:23:16.276Z,19.63
2018-06-25T11:24:16.544Z,19.48
2018-06-25T11:25:16.808Z,19.99
2018-06-25T11:26:17.079Z,20.00
2018-06-25T11:27:16.439Z,19.97
2018-06-25T11:28:16.835Z,20.03
2018-06-25T11:29:17.093Z,20.14
2018-06-25T11:30:16.367Z,20.45
2018-06-25T11:31:16.414Z,20.17
2018-06-25T11:32:16.674Z,19.72
2018-06-25T11:33:16.929Z,19.80
2018-06-25T11:34:17.194Z,19.66
2018-06-25T11:35:16.458Z,19.03
2018-06-25T11:36:16.713Z,19.20
2018-06-25T11:37:16.980Z,19.56
2018-06-25T11:38:16.241Z,19.59
2018-06-25T11:39:16.504Z,20.01
2018-06-25T11:40:16.777Z,20.21
2018-06-25T11:41:16.817Z,20.00
2018-06-25T11:42:17.084Z,20.04
2018-06-25T11:43:16.357Z,19.80
2018-06-25T11:44:16.623Z,19.38
2018-06-25T11:45:16.902Z,19.73
2018-06-25T11:46:17.166Z,19.76
2018-06-25T11:47:16.428Z,19.74
2018-06-25T11:48:16.690Z,19.72
2018-06-25T11:49:16.950Z,19.84
2018-06-25T11:50:16.206Z,20.49
2018-06-25T11:51:16.257Z,20.25
2018-06-25T11:52:16.515Z,20.38
2018-06-25T11:53:16.775Z,20.08
2018-06-25T11:54:17.038Z,20.24
2018-06-25T11:55:16.314Z,20.10
2018-06-25T11:56:16.578Z,20.07
2018-06-25T11:57:16.842Z,20.13
2018-06-25T11:58:17.103Z,20.13
2018-06-25T11:59:16.425Z,20.24
2018-06-25T12:00:16.702Z,20.17
2018-06-25T12:01:16.739Z,19.97
2018-06-25T12:02:16.993Z,19.81
2018-06-25T12:03:16.438Z,20.10
2018-06-25T12:04:16.302Z,20.23
2018-06-25T12:05:16.571Z,20.04
2018-06-25T12:06:16.835Z,20.23
2018-06-25T12:07:17.108Z,19.96
2018-06-25T12:08:16.393Z,19.51
2018-06-25T12:09:16.651Z,19.20
2018-06-25T12:10:16.924Z,19.48
2018-06-25T12:11:16.966Z,19.93
2018-06-25T12:12:16.232Z,20.08
2018-06-25T12:13:16.818Z,20.75
2018-06-25T12:14:17.282Z,20.80
2018-06-25T12:15:16.749Z,20.41
2018-06-25T12:16:17.012Z,20.71
2018-06-25T12:17:16.328Z,20.80
2018-06-25T12:18:16.607Z,20.89
2018-06-25T12:19:16.871Z,20.86
2018-06-25T12:20:17.139Z,20.68
2018-06-25T12:21:17.177Z,20.73
2018-06-25T12:22:16.437Z,20.69
2018-06-25T12:23:16.713Z,20.59
2018-06-25T12:24:16.974Z,20.46
2018-06-25T12:25:16.236Z,20.03
2018-06-25T12:26:16.511Z,19.86
2018-06-25T12:27:16.784Z,19.66
2018-06-25T12:28:17.064Z,19.74
2018-06-25T12:29:16.347Z,20.04
2018-06-25T12:30:16.629Z,20.08
2018-06-25T12:31:16.656Z,20.06
2018-06-25T12:32:16.916Z,20.14
2018-06-25T12:33:17.195Z,20.29
2018-06-25T12:34:16.465Z,20.29
2018-06-25T12:35:16.733Z,19.55
2018-06-25T12:36:16.989Z,19.83
2018-06-25T12:37:16.251Z,20.01
2018-06-25T12:38:16.525Z,20.38
2018-06-25T12:39:16.786Z,20.38
2018-06-25T12:40:17.051Z,19.72
2018-06-25T12:41:17.085Z,19.81
2018-06-25T12:42:16.345Z,19.90
2018-06-25T12:43:16.668Z,20.00
2018-06-25T12:44:17.002Z,20.16
2018-06-25T12:45:16.268Z,20.41
2018-06-25T12:46:16.533Z,21.09
2018-06-25T12:47:16.799Z,21.14
2018-06-25T12:48:17.085Z,21.33
2018-06-25T12:49:16.396Z,21.25
2018-06-25T12:50:16.667Z,20.93
2018-06-25T12:51:16.724Z,20.84
2018-06-25T12:52:16.987Z,20.69